Hauptseite
METAR-TAF:

METAR-TAF

Flughäfen :

Flughafen Grenchen

Grenchen, Schweiz

Breite: 47-10-53N, Länge: 007-24-59E, Höhe: 430 m

Beobachtung

Neuester Wetterbericht von vor 51 Minuten, um 23:50 UTC
Wind 1 kt aus unterschiedlichen Richtungen
Temperatur 1°C
Luftfeuchtigkeit 100%
Luftdruck 1036 hPa
Sichtweite 10 km oder mehr
keine Wolken unter 1500 m und keine Kumulonimbus oder Gewitterwolken

METAR: LSZG 042350Z AUTO VRB01KT CAVOK 01/01 Q1036

Zeit: 01:41 (00:41 UTC)

Prognose

Neuester Wetterbericht von vor 10 Stunden und 16 Minuten, um 14:25 UTC
Gültige Prognose vom 04 um 15 UTC bis 04 um 24 UTC
Wind 2 kt aus unterschiedlichen Richtungen
Sichtweite 10 km oder mehr
Leicht bewölkt in der Höhe von 1000 ft
Durchbrochene Bewölkung in der Höhe von 2800 ft

TAF: LSZG 041425Z 0415/0424 VRB02KT 9999 FEW010 BKN028

Wetterbeobachtungen und Prognosen von mehr als 4000 Flughäfen (METAR und TAF Bericht).

Die verfügbaren Stationen werden durch gelbe und rote Markierungen auf der Karte dargestellt.

Führen Sie die Maus auf sie, um den Namen der Station zu sehen.

Darauf klicken, um die Beobachtung von Wetterbeobachtungen und Prognosen zu sehen.

Um die Karte zu ändern : klicken Sie auf den grünen Tasten mit einem schwarzen Kreuz Zum Vergrößern, auf den grünen Button mit einem Gedankenstrich zu verkleinern, oder auf die grünen Pfeile für benachbarte Karten.


METAR-TAF: